Airfield :
LOGIN :

Register | Disclaimer

   EN    FR    IT 

 










Legend :    VFR   Marginal VFR   IFR   Intensive IFR   Very Intensive IFR
Visi :
Ceiling :
>= 8 km
>= 3000ft
5 to 8 km
1000 to 3000 ft
1500m to 5 km
500 to 1000 ft
800 to 1500m
200 to 500 ft
< 800m
< 200 ft
Symbols :   Thunderstorms  Fog  Heavy snow  Heavy precipitations  Wind > 20 kt
SIGMETs :     Misc.  Thunderstorms  Icing  Turbulence  Mountain Waves  Volcanic Ashes







- Airport Elevation : 17 ft
- IATA code : CPH


EKCH - København - Kastrup (Copenhagen)

CURRENT METAR :
  • 251820Z 28015KT 9999 FEW030TCU 05/M00 Q1003 TEMPO SHRA SCT030CB

EXPIRED METARs :
  • 251750Z 28019KT 9999 SCT030 06/M01 Q1003 TEMPO SHRA SCT030CB
  • 251720Z 27017G27KT 9999 SCT030 FEW037CB 06/00 Q1002 NOSIG
  • 251650Z 27016KT 9999 SCT030 FEW040CB 06/00 Q1002 NOSIG
  • 251620Z 28016G26KT 9999 FEW040CB SCT060 06/01 Q1002 TEMPO SHRAGS
  • 251550Z 28011KT 9999 FEW040CB SCT070 05/01 Q1002 TEMPO SHRAGS
  • 251520Z 27017KT 9999 VCSH FEW040CB SCT070 06/01 Q1002 TEMPO SHRAGS

TAF TAF EKCH
Valid from the 25 at 18:00 until the 26 at 18:00 UTC


251700Z 2518/2618 26012KT 9999 SCT030
TEMPO 2518/2522 SHRA BKN020CB
TEMPO 2612/2618 SHRA SCT020CB
No reported NOTAMs for that airfield.



MET'MAP, your aeronautical weather chart ! - Copyright ORBIFLY December 2007 - Disclaimer

ORBIFLY MET'MAP TEAM :

Programming & Development : Alexandra Zaïnal
Concept & Development : Baudouin d'Aumeries
Co-Development & Prog : Marc-Olivier Méhu
Technical & hardware support : Manuel Goepfert

Contact : metmap@orbifly.com




SOURCES & CREDITS :

   NOAA